sensor_id;sensor_type;location;lat;lon;timestamp;temperature;humidity
72440;DHT22;60446;50.752;4.352;2022-12-13T19:31:22;18.90;43.30
72440;DHT22;60446;50.752;4.352;2022-12-13T19:33:48;18.70;42.70
72440;DHT22;60446;50.752;4.352;2022-12-13T19:36:14;18.70;42.90
72440;DHT22;60446;50.752;4.352;2022-12-13T19:38:40;18.80;42.80
72440;DHT22;60446;50.752;4.352;2022-12-13T19:43:33;18.90;42.40
72440;DHT22;60446;50.752;4.352;2022-12-13T19:46:00;18.90;42.30
72440;DHT22;60446;50.752;4.352;2022-12-13T19:48:26;19.00;41.60
72440;DHT22;60446;50.752;4.352;2022-12-13T19:50:57;19.00;41.80
72440;DHT22;60446;50.752;4.352;2022-12-13T19:53:27;19.00;41.80
72440;DHT22;60446;50.752;4.352;2022-12-13T19:55:54;19.10;42.30
72440;DHT22;60446;50.752;4.352;2022-12-13T19:58:20;19.10;42.50
72440;DHT22;60446;50.752;4.352;2022-12-13T20:00:46;19.20;42.30
72440;DHT22;60446;50.752;4.352;2022-12-13T20:03:12;19.20;41.10
72440;DHT22;60446;50.752;4.352;2022-12-13T20:05:38;19.30;41.80
72440;DHT22;60446;50.752;4.352;2022-12-13T20:08:04;19.30;41.10
72440;DHT22;60446;50.752;4.352;2022-12-13T20:10:33;19.30;41.40
72440;DHT22;60446;50.752;4.352;2022-12-13T20:13:00;19.20;41.50
72440;DHT22;60446;50.752;4.352;2022-12-13T20:15:26;19.20;41.30
72440;DHT22;60446;50.752;4.352;2022-12-13T20:17:51;19.20;41.00
72440;DHT22;60446;50.752;4.352;2022-12-13T20:20:18;19.20;41.10
72440;DHT22;60446;50.752;4.352;2022-12-13T20:22:44;19.30;40.90
72440;DHT22;60446;50.752;4.352;2022-12-13T20:25:11;19.30;40.80
72440;DHT22;60446;50.752;4.352;2022-12-13T20:27:38;19.30;40.90
72440;DHT22;60446;50.752;4.352;2022-12-13T20:30:05;19.30;40.70
72440;DHT22;60446;50.752;4.352;2022-12-13T20:32:31;19.30;40.80
72440;DHT22;60446;50.752;4.352;2022-12-13T20:34:57;19.40;40.70
72440;DHT22;60446;50.752;4.352;2022-12-13T20:37:23;19.40;40.40
72440;DHT22;60446;50.752;4.352;2022-12-13T20:39:51;19.40;40.70
72440;DHT22;60446;50.752;4.352;2022-12-13T20:42:17;19.40;40.70
72440;DHT22;60446;50.752;4.352;2022-12-13T20:44:43;19.40;40.60
72440;DHT22;60446;50.752;4.352;2022-12-13T20:47:09;19.40;40.40
72440;DHT22;60446;50.752;4.352;2022-12-13T20:49:35;19.40;40.60
72440;DHT22;60446;50.752;4.352;2022-12-13T20:52:01;19.40;40.50
72440;DHT22;60446;50.752;4.352;2022-12-13T20:54:27;19.40;40.50
72440;DHT22;60446;50.752;4.352;2022-12-13T20:56:53;19.40;40.30
72440;DHT22;60446;50.752;4.352;2022-12-13T20:59:19;19.50;40.40
72440;DHT22;60446;50.752;4.352;2022-12-13T21:01:44;19.50;40.20
72440;DHT22;60446;50.752;4.352;2022-12-13T21:04:11;19.50;40.20
72440;DHT22;60446;50.752;4.352;2022-12-13T21:06:39;19.50;39.90
72440;DHT22;60446;50.752;4.352;2022-12-13T21:09:07;19.50;40.20
72440;DHT22;60446;50.752;4.352;2022-12-13T21:11:35;19.50;40.20
72440;DHT22;60446;50.752;4.352;2022-12-13T21:14:12;19.50;40.10
72440;DHT22;60446;50.752;4.352;2022-12-13T21:16:42;19.50;39.90
72440;DHT22;60446;50.752;4.352;2022-12-13T21:19:30;19.50;39.80
72440;DHT22;60446;50.752;4.352;2022-12-13T21:22:00;19.50;39.80
72440;DHT22;60446;50.752;4.352;2022-12-13T21:24:26;19.50;40.00
72440;DHT22;60446;50.752;4.352;2022-12-13T21:26:54;19.50;39.90
72440;DHT22;60446;50.752;4.352;2022-12-13T21:29:24;19.50;39.80
72440;DHT22;60446;50.752;4.352;2022-12-13T21:31:50;19.50;39.90
72440;DHT22;60446;50.752;4.352;2022-12-13T21:34:18;19.50;39.70
72440;DHT22;60446;50.752;4.352;2022-12-13T21:36:46;19.50;39.80
72440;DHT22;60446;50.752;4.352;2022-12-13T21:39:18;19.50;39.70
72440;DHT22;60446;50.752;4.352;2022-12-13T21:41:47;19.50;39.70
